Time;durP1;ratioP1;P1;durP2;ratioP2;P2;SDS_P1;SDS_P2;PMS_P1;PMS_P2;Temp;Humidity;BMP_temperature;BMP_pressure;BME280_temperature;BME280_humidity;BME280_pressure;Samples;Min_cycle;Max_cycle;Signal;HPM_P1;HPM_P2
2023/06/25 00:01:00;;;;;;;12.40;5.70;;;;;;;;;;5005847;28;20087;-66
2023/06/25 00:03:27;;;;;;;11.20;5.20;;;;;;;;;;5008526;28;20139;-65
2023/06/25 00:05:53;;;;;;;9.73;4.60;;;;;;;;;;4999766;28;20565;-66
2023/06/25 00:08:19;;;;;;;10.15;4.57;;;;;;;;;;5009665;28;20020;-65
2023/06/25 00:10:46;;;;;;;8.75;4.40;;;;;;;;;;4996966;28;20056;-66
2023/06/25 00:13:12;;;;;;;11.65;5.60;;;;;;;;;;5010711;28;20949;-66
2023/06/25 00:15:38;;;;;;;11.02;5.50;;;;;;;;;;5009665;28;20033;-65
2023/06/25 00:18:04;;;;;;;11.07;5.38;;;;;;;;;;4995063;28;20033;-66
2023/06/25 00:20:30;;;;;;;10.52;5.38;;;;;;;;;;5008511;28;20929;-66
2023/06/25 00:22:56;;;;;;;10.55;5.97;;;;;;;;;;4993732;28;20444;-65
2023/06/25 00:25:26;;;;;;;9.90;5.72;;;;;;;;;;5006707;28;20049;-66
2023/06/25 00:27:57;;;;;;;11.63;5.07;;;;;;;;;;4993583;28;20032;-65
2023/06/25 00:30:25;;;;;;;11.05;6.10;;;;;;;;;;4928130;28;20624;-65
2023/06/25 00:32:54;;;;;;;14.38;6.90;;;;;;;;;;4948314;28;20141;-67
2023/06/25 00:35:24;;;;;;;11.95;5.32;;;;;;;;;;4943446;28;20297;-65
2023/06/25 00:40:26;;;;;;;12.50;6.72;;;;;;;;;;4946510;23;20153;-61
2023/06/25 00:43:01;;;;;;;13.45;6.28;;;;;;;;;;4932513;28;20030;-61
2023/06/25 00:45:28;;;;;;;11.70;7.13;;;;;;;;;;4916762;28;20034;-62
2023/06/25 00:47:54;;;;;;;11.43;6.40;;;;;;;;;;4928487;28;20291;-62
2023/06/25 00:50:25;;;;;;;11.45;5.95;;;;;;;;;;4925708;28;20488;-61
2023/06/25 00:52:51;;;;;;;12.63;5.00;;;;;;;;;;4930756;28;20453;-61
2023/06/25 00:55:18;;;;;;;9.65;4.63;;;;;;;;;;4931417;28;20039;-61
2023/06/25 00:57:44;;;;;;;9.93;4.57;;;;;;;;;;4934436;28;20049;-60
2023/06/25 01:00:19;;;;;;;11.38;4.30;;;;;;;;;;4931711;28;20062;-61
2023/06/25 01:02:48;;;;;;;10.40;3.83;;;;;;;;;;4918856;28;20497;-61
2023/06/25 01:05:28;;;;;;;10.57;4.32;;;;;;;;;;4929954;28;20019;-61
2023/06/25 01:07:57;;;;;;;10.63;4.18;;;;;;;;;;4935011;28;20015;-60
2023/06/25 01:10:24;;;;;;;9.32;4.07;;;;;;;;;;4931247;28;20356;-61
2023/06/25 01:12:50;;;;;;;10.55;4.20;;;;;;;;;;4934233;28;20023;-61
2023/06/25 01:15:17;;;;;;;9.85;4.72;;;;;;;;;;4928373;28;20051;-61
2023/06/25 01:17:43;;;;;;;8.95;4.07;;;;;;;;;;4931157;28;20522;-63
2023/06/25 01:20:13;;;;;;;10.15;4.20;;;;;;;;;;4933665;28;20039;-61
2023/06/25 01:22:40;;;;;;;11.23;4.50;;;;;;;;;;4926296;28;20571;-61
2023/06/25 01:25:07;;;;;;;11.63;4.43;;;;;;;;;;4916781;28;20023;-61
2023/06/25 01:27:34;;;;;;;11.30;4.72;;;;;;;;;;4929343;28;20419;-61
2023/06/25 01:30:00;;;;;;;10.38;4.15;;;;;;;;;;4933608;28;20564;-61
2023/06/25 01:32:26;;;;;;;10.50;3.90;;;;;;;;;;4927823;28;20373;-61
2023/06/25 01:34:53;;;;;;;9.70;3.70;;;;;;;;;;4932561;28;20114;-61
2023/06/25 01:37:19;;;;;;;9.48;3.70;;;;;;;;;;4931329;28;20572;-62
2023/06/25 01:39:46;;;;;;;8.45;3.63;;;;;;;;;;4934324;28;20056;-61
2023/06/25 01:42:12;;;;;;;9.73;4.20;;;;;;;;;;4933779;28;20027;-61
2023/06/25 01:44:39;;;;;;;9.02;3.50;;;;;;;;;;4929592;28;20035;-61
2023/06/25 01:47:05;;;;;;;9.98;3.65;;;;;;;;;;4914884;28;20115;-61
2023/06/25 01:49:31;;;;;;;9.63;3.63;;;;;;;;;;4910697;28;20517;-61
2023/06/25 01:51:57;;;;;;;9.13;3.40;;;;;;;;;;4934233;28;20026;-61
2023/06/25 01:54:24;;;;;;;9.50;3.72;;;;;;;;;;4912522;28;20079;-61
2023/06/25 01:56:50;;;;;;;10.45;3.97;;;;;;;;;;4933932;28;20027;-62
2023/06/25 01:59:16;;;;;;;8.55;3.67;;;;;;;;;;4929168;28;20034;-61
2023/06/25 02:01:43;;;;;;;9.45;3.88;;;;;;;;;;4932891;28;20027;-61
2023/06/25 02:04:09;;;;;;;9.20;4.07;;;;;;;;;;4928445;28;20035;-61
2023/06/25 02:06:35;;;;;;;9.63;3.83;;;;;;;;;;4932647;28;20117;-62
2023/06/25 02:09:02;;;;;;;9.27;4.15;;;;;;;;;;4936593;28;20751;-61
2023/06/25 02:11:28;;;;;;;9.68;3.40;;;;;;;;;;4932784;28;20142;-61
2023/06/25 02:13:54;;;;;;;9.63;4.10;;;;;;;;;;4936045;28;20043;-62
2023/06/25 02:16:20;;;;;;;10.30;3.53;;;;;;;;;;4934653;28;20037;-61
2023/06/25 02:18:46;;;;;;;10.02;3.20;;;;;;;;;;4937458;28;20666;-61
2023/06/25 02:21:13;;;;;;;9.98;3.88;;;;;;;;;;4936191;28;20023;-61
2023/06/25 02:23:39;;;;;;;8.15;3.28;;;;;;;;;;4917403;28;20066;-61
2023/06/25 02:26:05;;;;;;;10.93;4.60;;;;;;;;;;4935292;28;20433;-61
2023/06/25 02:28:31;;;;;;;9.25;3.97;;;;;;;;;;4930012;28;20404;-61
2023/06/25 02:30:57;;;;;;;9.95;3.38;;;;;;;;;;4935501;28;20024;-61
2023/06/25 02:33:24;;;;;;;9.55;3.60;;;;;;;;;;4932114;28;20035;-63
2023/06/25 02:35:51;;;;;;;8.82;3.72;;;;;;;;;;4938312;28;21280;-62
2023/06/25 02:38:17;;;;;;;8.45;3.80;;;;;;;;;;4937863;28;20035;-61
2023/06/25 02:40:43;;;;;;;7.32;3.33;;;;;;;;;;4936433;28;20327;-60
2023/06/25 02:43:09;;;;;;;9.27;3.25;;;;;;;;;;4933711;28;20515;-61
2023/06/25 02:45:35;;;;;;;7.40;3.60;;;;;;;;;;4930324;28;20135;-61
2023/06/25 02:48:01;;;;;;;10.43;3.85;;;;;;;;;;4919021;28;20505;-60
2023/06/25 02:50:28;;;;;;;9.35;4.22;;;;;;;;;;4919512;28;20506;-61
2023/06/25 02:52:54;;;;;;;10.55;3.88;;;;;;;;;;4935104;28;20033;-61
2023/06/25 02:55:21;;;;;;;9.32;3.60;;;;;;;;;;4933699;28;20109;-61
2023/06/25 02:57:47;;;;;;;8.40;3.70;;;;;;;;;;4934502;28;20030;-62
2023/06/25 03:00:13;;;;;;;9.38;4.00;;;;;;;;;;4918934;28;20045;-61
2023/06/25 03:02:39;;;;;;;12.32;4.70;;;;;;;;;;4933023;28;20030;-61
2023/06/25 03:05:05;;;;;;;9.63;4.22;;;;;;;;;;4920308;28;20031;-61
2023/06/25 03:07:32;;;;;;;10.32;3.75;;;;;;;;;;4932909;28;20726;-62
2023/06/25 03:09:58;;;;;;;9.60;3.80;;;;;;;;;;4936825;28;20367;-61
2023/06/25 03:12:24;;;;;;;9.10;3.83;;;;;;;;;;4916987;28;20362;-62
2023/06/25 03:14:50;;;;;;;10.23;3.90;;;;;;;;;;4934613;28;20031;-61
2023/06/25 03:17:17;;;;;;;11.10;4.00;;;;;;;;;;4920441;28;20105;-62
2023/06/25 03:19:43;;;;;;;10.70;4.18;;;;;;;;;;4931494;28;20465;-61
2023/06/25 03:22:09;;;;;;;10.43;3.30;;;;;;;;;;4922067;28;20066;-61
2023/06/25 03:24:35;;;;;;;11.35;3.88;;;;;;;;;;4928215;28;20568;-61
2023/06/25 03:27:01;;;;;;;9.35;3.33;;;;;;;;;;4936752;28;20583;-61
2023/06/25 03:29:28;;;;;;;7.93;3.25;;;;;;;;;;4930969;28;20117;-61
2023/06/25 03:31:54;;;;;;;7.53;3.08;;;;;;;;;;4934050;28;20289;-61
2023/06/25 03:34:20;;;;;;;9.77;4.47;;;;;;;;;;4932973;28;20035;-62
2023/06/25 03:36:46;;;;;;;10.65;4.53;;;;;;;;;;4936161;28;20264;-62
2023/06/25 03:39:12;;;;;;;11.80;4.05;;;;;;;;;;4934695;28;20047;-61
2023/06/25 03:41:38;;;;;;;10.98;4.05;;;;;;;;;;4935140;28;20027;-62
2023/06/25 03:44:05;;;;;;;10.27;3.75;;;;;;;;;;4938204;28;20050;-62
2023/06/25 03:46:31;;;;;;;11.05;4.13;;;;;;;;;;4929205;28;20042;-61
2023/06/25 03:48:57;;;;;;;10.90;3.90;;;;;;;;;;4917732;28;20023;-63
2023/06/25 03:51:23;;;;;;;10.23;4.18;;;;;;;;;;4920489;28;20043;-62
2023/06/25 03:53:50;;;;;;;10.02;3.25;;;;;;;;;;4918187;28;20505;-62
2023/06/25 03:56:16;;;;;;;11.73;4.55;;;;;;;;;;4920310;28;20233;-61
2023/06/25 03:58:42;;;;;;;10.10;4.80;;;;;;;;;;4918389;28;20286;-61
2023/06/25 04:01:08;;;;;;;8.93;3.97;;;;;;;;;;4918495;28;20035;-61
2023/06/25 04:03:34;;;;;;;10.35;4.13;;;;;;;;;;4912762;28;20042;-61
2023/06/25 04:06:00;;;;;;;11.20;4.10;;;;;;;;;;4933546;28;20472;-61
2023/06/25 04:08:26;;;;;;;10.68;3.75;;;;;;;;;;4928040;28;20512;-61
2023/06/25 04:10:52;;;;;;;8.85;3.85;;;;;;;;;;4932872;28;20027;-61
2023/06/25 04:13:19;;;;;;;7.47;3.53;;;;;;;;;;4930002;28;20027;-61
2023/06/25 04:15:45;;;;;;;9.38;3.92;;;;;;;;;;4934874;28;20108;-61
2023/06/25 04:18:11;;;;;;;9.23;4.10;;;;;;;;;;4933012;28;20492;-61
2023/06/25 04:20:37;;;;;;;9.40;3.80;;;;;;;;;;4930704;28;20691;-61
2023/06/25 04:23:03;;;;;;;8.63;3.85;;;;;;;;;;4932022;28;20340;-61
2023/06/25 04:25:30;;;;;;;10.35;3.83;;;;;;;;;;4931992;28;20439;-61
2023/06/25 04:27:57;;;;;;;8.60;3.85;;;;;;;;;;4932135;28;20265;-61
2023/06/25 04:30:23;;;;;;;8.43;3.85;;;;;;;;;;4916356;28;20039;-61
2023/06/25 04:32:50;;;;;;;7.68;3.10;;;;;;;;;;4931909;28;20027;-61
2023/06/25 04:35:19;;;;;;;9.18;3.95;;;;;;;;;;4934951;28;20035;-61
2023/06/25 04:37:45;;;;;;;9.15;4.13;;;;;;;;;;4933942;28;20545;-61
2023/06/25 04:40:12;;;;;;;9.63;4.00;;;;;;;;;;4920764;28;20486;-61
2023/06/25 04:42:38;;;;;;;9.82;3.63;;;;;;;;;;4914979;28;20030;-61
2023/06/25 04:45:05;;;;;;;8.38;3.42;;;;;;;;;;4919159;28;20043;-61
2023/06/25 04:47:32;;;;;;;10.95;3.65;;;;;;;;;;4928527;28;20126;-61
2023/06/25 04:49:58;;;;;;;8.50;4.10;;;;;;;;;;4913215;28;20039;-61
2023/06/25 04:52:24;;;;;;;11.45;3.58;;;;;;;;;;4931702;28;20141;-61
2023/06/25 04:54:50;;;;;;;10.55;3.78;;;;;;;;;;4935684;28;20053;-61
2023/06/25 04:57:17;;;;;;;11.38;3.78;;;;;;;;;;4931455;28;20035;-61
2023/06/25 04:59:43;;;;;;;8.70;3.22;;;;;;;;;;4921228;28;20566;-61
2023/06/25 05:02:09;;;;;;;8.55;3.67;;;;;;;;;;4932232;28;20652;-60
2023/06/25 05:04:35;;;;;;;10.38;3.90;;;;;;;;;;4929646;28;20034;-61
2023/06/25 05:07:01;;;;;;;7.82;3.20;;;;;;;;;;4932897;28;20237;-61
2023/06/25 05:09:27;;;;;;;11.73;3.42;;;;;;;;;;4931420;28;20046;-61
2023/06/25 05:11:53;;;;;;;8.57;3.53;;;;;;;;;;4932167;28;20063;-61
2023/06/25 05:14:20;;;;;;;10.93;3.38;;;;;;;;;;4917229;28;20069;-61
2023/06/25 05:16:46;;;;;;;8.55;3.83;;;;;;;;;;4927152;28;20237;-61
2023/06/25 05:19:12;;;;;;;8.00;3.30;;;;;;;;;;4933545;28;20773;-61
2023/06/25 05:21:39;;;;;;;7.93;3.53;;;;;;;;;;4928898;28;20027;-61
2023/06/25 05:24:05;;;;;;;8.27;3.10;;;;;;;;;;4921032;28;20501;-61
2023/06/25 05:26:31;;;;;;;9.20;3.20;;;;;;;;;;4931502;28;20031;-61
2023/06/25 05:28:57;;;;;;;8.43;3.42;;;;;;;;;;4935083;28;20209;-60
2023/06/25 05:31:24;;;;;;;10.43;3.65;;;;;;;;;;4930249;28;20895;-62
2023/06/25 05:33:50;;;;;;;6.70;3.03;;;;;;;;;;4931894;28;20122;-62
2023/06/25 05:36:17;;;;;;;8.32;3.47;;;;;;;;;;4931241;28;20039;-60
2023/06/25 05:38:43;;;;;;;8.30;3.10;;;;;;;;;;4934395;28;20047;-60
2023/06/25 05:41:09;;;;;;;7.90;3.55;;;;;;;;;;4935764;28;20059;-60
2023/06/25 05:43:36;;;;;;;9.52;3.85;;;;;;;;;;4935291;28;20152;-63
2023/06/25 05:46:02;;;;;;;8.82;3.85;;;;;;;;;;4934909;28;20038;-63
2023/06/25 05:48:28;;;;;;;8.65;3.97;;;;;;;;;;4918587;28;20022;-61
2023/06/25 05:50:54;;;;;;;8.07;3.10;;;;;;;;;;4937726;28;20071;-60
2023/06/25 05:53:23;;;;;;;11.57;3.33;;;;;;;;;;4917713;28;20811;-61
2023/06/25 05:55:49;;;;;;;8.32;3.10;;;;;;;;;;4923172;28;20043;-61
2023/06/25 05:58:16;;;;;;;7.28;3.30;;;;;;;;;;4935139;28;20437;-61
2023/06/25 06:00:42;;;;;;;8.68;3.95;;;;;;;;;;4934776;28;20503;-60
2023/06/25 06:03:08;;;;;;;10.18;4.05;;;;;;;;;;4935401;28;20379;-61
2023/06/25 06:05:34;;;;;;;10.75;4.15;;;;;;;;;;4917787;28;20031;-61
2023/06/25 06:08:01;;;;;;;12.25;4.28;;;;;;;;;;4937243;28;20019;-60
2023/06/25 06:10:27;;;;;;;9.48;3.70;;;;;;;;;;4918363;28;20410;-61
2023/06/25 06:12:53;;;;;;;14.32;4.22;;;;;;;;;;4936908;28;20023;-62
2023/06/25 06:15:19;;;;;;;8.88;3.97;;;;;;;;;;4930955;28;20070;-64
2023/06/25 06:17:46;;;;;;;8.27;3.00;;;;;;;;;;4921528;28;20163;-62
2023/06/25 06:20:12;;;;;;;8.30;3.40;;;;;;;;;;4936282;28;20053;-61
2023/06/25 06:22:38;;;;;;;10.05;3.40;;;;;;;;;;4934325;28;20035;-62
2023/06/25 06:25:04;;;;;;;9.27;4.25;;;;;;;;;;4934989;28;20494;-61
2023/06/25 06:27:30;;;;;;;9.75;3.83;;;;;;;;;;4915600;28;20417;-64
2023/06/25 06:29:57;;;;;;;10.55;4.68;;;;;;;;;;4933544;28;20106;-62
2023/06/25 06:32:23;;;;;;;12.10;4.72;;;;;;;;;;4931548;28;20312;-62
2023/06/25 06:34:49;;;;;;;9.15;4.13;;;;;;;;;;4938943;28;20045;-61
2023/06/25 06:37:15;;;;;;;9.05;4.00;;;;;;;;;;4932030;28;20109;-61
2023/06/25 06:39:41;;;;;;;12.02;4.60;;;;;;;;;;4910215;28;20058;-62
2023/06/25 06:42:07;;;;;;;10.13;4.30;;;;;;;;;;4917054;28;20563;-62
2023/06/25 06:44:33;;;;;;;8.38;3.55;;;;;;;;;;4910927;28;20333;-62
2023/06/25 06:46:59;;;;;;;9.95;3.92;;;;;;;;;;4914924;28;20091;-62
2023/06/25 06:49:26;;;;;;;8.80;3.83;;;;;;;;;;4911928;28;20059;-62
2023/06/25 06:51:52;;;;;;;9.23;4.05;;;;;;;;;;4911394;28;20671;-62
2023/06/25 06:54:18;;;;;;;8.73;3.85;;;;;;;;;;4912059;28;20241;-62
2023/06/25 06:56:44;;;;;;;8.73;3.70;;;;;;;;;;4916373;28;20027;-62
2023/06/25 06:59:10;;;;;;;10.05;4.07;;;;;;;;;;4918270;28;20428;-62
2023/06/25 07:01:36;;;;;;;7.60;3.47;;;;;;;;;;4908387;28;20114;-62
2023/06/25 07:04:02;;;;;;;10.35;3.78;;;;;;;;;;4913958;28;20273;-62
2023/06/25 07:06:29;;;;;;;7.57;2.92;;;;;;;;;;4913247;28;20068;-62
2023/06/25 07:08:55;;;;;;;10.07;3.95;;;;;;;;;;4913569;28;20031;-61
2023/06/25 07:11:21;;;;;;;9.23;4.00;;;;;;;;;;4916589;28;20031;-62
2023/06/25 07:13:47;;;;;;;9.38;4.18;;;;;;;;;;4914035;28;20073;-62
2023/06/25 07:16:14;;;;;;;8.40;3.65;;;;;;;;;;4915398;28;20199;-62
2023/06/25 07:18:40;;;;;;;9.68;3.65;;;;;;;;;;4908931;28;20109;-63
2023/06/25 07:21:06;;;;;;;7.53;3.20;;;;;;;;;;4915451;28;20063;-61
2023/06/25 07:23:33;;;;;;;9.32;3.65;;;;;;;;;;4913484;28;20031;-62
2023/06/25 07:25:59;;;;;;;6.97;3.10;;;;;;;;;;4916684;28;20028;-62
2023/06/25 07:28:25;;;;;;;7.32;3.50;;;;;;;;;;4911116;28;20672;-62
2023/06/25 07:30:52;;;;;;;9.38;3.28;;;;;;;;;;4912085;28;20114;-62
2023/06/25 07:33:18;;;;;;;8.70;3.22;;;;;;;;;;4913638;28;20039;-61
2023/06/25 07:35:44;;;;;;;7.70;3.00;;;;;;;;;;4913066;28;20034;-62
2023/06/25 07:38:10;;;;;;;7.85;2.75;;;;;;;;;;4914163;28;20038;-62
2023/06/25 07:40:36;;;;;;;9.93;3.53;;;;;;;;;;4919583;28;21110;-62
2023/06/25 07:43:03;;;;;;;8.85;3.55;;;;;;;;;;4918880;28;20486;-61
2023/06/25 07:45:30;;;;;;;8.77;3.70;;;;;;;;;;4928603;28;20496;-61
2023/06/25 07:47:56;;;;;;;10.02;4.15;;;;;;;;;;4931384;28;20027;-62
2023/06/25 07:50:22;;;;;;;8.75;3.15;;;;;;;;;;4929826;28;20118;-62
2023/06/25 07:52:48;;;;;;;11.80;3.95;;;;;;;;;;4931966;28;20508;-61
2023/06/25 07:55:14;;;;;;;11.13;4.00;;;;;;;;;;4936104;28;20031;-62
2023/06/25 07:57:41;;;;;;;10.00;3.75;;;;;;;;;;4916468;28;20030;-61
2023/06/25 08:00:08;;;;;;;8.88;3.70;;;;;;;;;;4934935;28;20069;-66
2023/06/25 08:02:34;;;;;;;11.63;3.83;;;;;;;;;;4927385;28;20475;-61
2023/06/25 08:05:00;;;;;;;9.52;3.60;;;;;;;;;;4935043;28;20257;-61
2023/06/25 08:07:26;;;;;;;7.90;3.22;;;;;;;;;;4930169;28;20037;-61
2023/06/25 08:09:52;;;;;;;8.07;3.38;;;;;;;;;;4929260;28;20114;-62
2023/06/25 08:12:18;;;;;;;7.38;3.10;;;;;;;;;;4930543;28;20085;-62
2023/06/25 08:14:46;;;;;;;8.00;3.30;;;;;;;;;;4932736;28;20131;-64
2023/06/25 08:17:12;;;;;;;8.38;3.40;;;;;;;;;;4934558;28;20511;-62
2023/06/25 08:19:38;;;;;;;8.88;3.35;;;;;;;;;;4927901;28;20402;-61
2023/06/25 08:22:05;;;;;;;6.88;3.03;;;;;;;;;;4920402;28;20034;-61
2023/06/25 08:24:31;;;;;;;9.25;3.20;;;;;;;;;;4912357;28;20142;-62
2023/06/25 08:26:58;;;;;;;9.00;3.30;;;;;;;;;;4930707;28;20321;-62
2023/06/25 08:29:24;;;;;;;8.35;3.25;;;;;;;;;;4930619;28;20026;-62
2023/06/25 08:31:50;;;;;;;8.48;3.58;;;;;;;;;;4918969;28;20019;-62
2023/06/25 08:34:16;;;;;;;7.70;3.42;;;;;;;;;;4932521;28;20031;-61
2023/06/25 08:36:42;;;;;;;8.02;3.40;;;;;;;;;;4932384;28;20145;-62
2023/06/25 08:39:08;;;;;;;9.75;3.60;;;;;;;;;;4931532;28;20038;-62
2023/06/25 08:41:35;;;;;;;7.28;3.00;;;;;;;;;;4929397;28;20344;-61
2023/06/25 08:44:01;;;;;;;7.68;3.40;;;;;;;;;;4917499;28;20066;-62
2023/06/25 08:46:27;;;;;;;9.25;3.20;;;;;;;;;;4930204;28;20035;-64
2023/06/25 08:48:54;;;;;;;8.73;3.72;;;;;;;;;;4920405;28;20038;-62
2023/06/25 08:51:24;;;;;;;13.25;5.28;;;;;;;;;;4915378;28;20087;-62
2023/06/25 08:53:51;;;;;;;8.23;3.45;;;;;;;;;;4933171;28;20034;-65
2023/06/25 08:56:17;;;;;;;8.38;3.30;;;;;;;;;;4940215;28;20383;-63
2023/06/25 08:58:44;;;;;;;6.90;2.97;;;;;;;;;;4939475;28;20064;-64
2023/06/25 09:01:12;;;;;;;8.35;3.42;;;;;;;;;;4936395;28;20070;-62
2023/06/25 09:03:39;;;;;;;7.97;3.40;;;;;;;;;;4932060;28;20258;-62
2023/06/25 09:06:11;;;;;;;8.05;3.60;;;;;;;;;;4921655;28;20041;-62
2023/06/25 09:08:40;;;;;;;8.85;3.30;;;;;;;;;;4932699;28;20834;-62
2023/06/25 09:11:06;;;;;;;9.32;3.45;;;;;;;;;;4923909;28;20942;-61
2023/06/25 09:13:32;;;;;;;10.18;3.70;;;;;;;;;;4932788;28;20047;-62
2023/06/25 09:16:02;;;;;;;8.65;3.58;;;;;;;;;;4934729;28;20437;-61
2023/06/25 09:18:29;;;;;;;8.32;3.75;;;;;;;;;;4920064;28;20489;-62
2023/06/25 09:20:56;;;;;;;8.90;3.45;;;;;;;;;;4938188;28;20129;-62
2023/06/25 09:23:23;;;;;;;8.60;3.28;;;;;;;;;;4918297;28;20031;-62
2023/06/25 09:25:53;;;;;;;8.25;3.35;;;;;;;;;;4940602;28;20158;-62
2023/06/25 09:28:19;;;;;;;8.23;3.25;;;;;;;;;;4934201;28;20018;-62
2023/06/25 09:30:46;;;;;;;8.27;3.70;;;;;;;;;;4938534;28;20062;-62
2023/06/25 09:33:12;;;;;;;9.20;3.55;;;;;;;;;;4940984;28;20426;-63
2023/06/25 09:35:39;;;;;;;11.32;3.42;;;;;;;;;;4933433;28;20031;-61
2023/06/25 09:38:05;;;;;;;11.25;3.40;;;;;;;;;;4938637;28;20031;-63
2023/06/25 09:40:32;;;;;;;9.02;3.53;;;;;;;;;;4934323;28;20037;-63
2023/06/25 09:42:59;;;;;;;9.77;3.45;;;;;;;;;;4935724;28;20038;-63
2023/06/25 09:45:25;;;;;;;10.43;3.67;;;;;;;;;;4936923;28;20032;-62
2023/06/25 09:47:52;;;;;;;11.18;3.80;;;;;;;;;;4936836;28;20445;-62
2023/06/25 09:50:19;;;;;;;9.70;3.50;;;;;;;;;;4934323;28;20026;-63
2023/06/25 09:52:51;;;;;;;9.43;3.33;;;;;;;;;;4933996;28;20023;-61
2023/06/25 09:55:17;;;;;;;10.63;3.60;;;;;;;;;;4938102;28;20023;-64
2023/06/25 09:57:43;;;;;;;8.48;3.13;;;;;;;;;;4940843;28;20081;-63
2023/06/25 10:00:10;;;;;;;7.30;3.45;;;;;;;;;;4938210;28;20547;-63
2023/06/25 10:02:37;;;;;;;8.85;3.50;;;;;;;;;;4934759;28;21205;-61
2023/06/25 10:05:03;;;;;;;8.65;3.55;;;;;;;;;;4938426;28;20062;-61
2023/06/25 10:07:30;;;;;;;9.27;3.65;;;;;;;;;;4932700;28;20031;-62
2023/06/25 10:09:56;;;;;;;7.93;3.55;;;;;;;;;;4922230;28;20376;-61
2023/06/25 10:12:22;;;;;;;9.63;3.63;;;;;;;;;;4935799;28;20100;-61
2023/06/25 10:14:49;;;;;;;7.88;3.17;;;;;;;;;;4940068;28;20031;-63
2023/06/25 10:17:15;;;;;;;8.57;4.07;;;;;;;;;;4939854;28;20434;-61
2023/06/25 10:19:56;;;;;;;6.97;3.30;;;;;;;;;;4918098;28;20389;-62
2023/06/25 10:22:26;;;;;;;7.05;3.10;;;;;;;;;;4916748;28;20041;-64
2023/06/25 10:24:53;;;;;;;7.18;3.17;;;;;;;;;;4938558;28;20741;-61
2023/06/25 10:27:26;;;;;;;9.98;3.85;;;;;;;;;;4919710;28;20038;-63
2023/06/25 10:29:53;;;;;;;10.50;3.40;;;;;;;;;;4921479;28;20042;-63
2023/06/25 10:32:23;;;;;;;8.48;3.47;;;;;;;;;;4939893;28;20915;-62
2023/06/25 10:34:55;;;;;;;7.47;3.58;;;;;;;;;;4939237;28;20042;-62
2023/06/25 10:37:23;;;;;;;10.65;3.90;;;;;;;;;;4940996;28;20507;-62
2023/06/25 10:39:49;;;;;;;7.90;3.60;;;;;;;;;;4928126;28;20425;-62
2023/06/25 10:42:15;;;;;;;8.40;3.90;;;;;;;;;;4941860;28;20050;-62
2023/06/25 10:44:41;;;;;;;8.02;3.65;;;;;;;;;;4937043;28;20033;-62
2023/06/25 10:47:09;;;;;;;9.93;4.03;;;;;;;;;;4925575;28;20130;-61
2023/06/25 10:49:35;;;;;;;8.10;3.40;;;;;;;;;;4923797;28;20299;-60
2023/06/25 10:52:02;;;;;;;8.00;2.97;;;;;;;;;;4927388;28;20111;-62
2023/06/25 10:54:29;;;;;;;9.35;4.20;;;;;;;;;;4923145;28;20350;-63
2023/06/25 10:57:08;;;;;;;8.40;3.50;;;;;;;;;;4921379;28;20035;-63
2023/06/25 10:59:34;;;;;;;6.93;3.50;;;;;;;;;;4938610;28;20452;-63
2023/06/25 11:02:14;;;;;;;7.97;3.72;;;;;;;;;;4924196;28;20505;-62
2023/06/25 11:04:43;;;;;;;7.65;3.60;;;;;;;;;;4940049;28;20027;-62
2023/06/25 11:07:12;;;;;;;8.50;3.47;;;;;;;;;;4938644;28;20037;-62
2023/06/25 11:09:38;;;;;;;7.47;3.33;;;;;;;;;;4937169;28;20118;-62
2023/06/25 11:12:08;;;;;;;8.38;3.60;;;;;;;;;;4926245;28;20027;-62
2023/06/25 11:14:34;;;;;;;7.80;3.40;;;;;;;;;;4929987;28;20411;-61
2023/06/25 11:17:00;;;;;;;8.23;3.60;;;;;;;;;;4936321;28;20473;-62
2023/06/25 11:19:28;;;;;;;9.35;4.50;;;;;;;;;;4932761;28;20031;-62
2023/06/25 11:21:54;;;;;;;7.95;3.83;;;;;;;;;;4936170;28;20033;-61
2023/06/25 11:24:20;;;;;;;8.43;3.67;;;;;;;;;;4933082;28;20380;-62
2023/06/25 11:26:47;;;;;;;6.85;3.28;;;;;;;;;;4934299;28;20038;-61
2023/06/25 11:29:13;;;;;;;8.20;3.33;;;;;;;;;;4940386;28;20485;-62
2023/06/25 11:31:43;;;;;;;9.05;3.15;;;;;;;;;;4933036;28;20031;-62
2023/06/25 11:34:26;;;;;;;9.50;3.40;;;;;;;;;;4941184;28;20030;-62
2023/06/25 11:36:52;;;;;;;7.30;3.20;;;;;;;;;;4936882;28;20037;-62
2023/06/25 11:39:18;;;;;;;8.02;3.20;;;;;;;;;;4935463;28;20451;-63
2023/06/25 11:41:45;;;;;;;7.90;3.42;;;;;;;;;;4938362;28;20039;-62
2023/06/25 11:44:22;;;;;;;8.43;3.05;;;;;;;;;;4939083;28;20042;-62
2023/06/25 11:46:52;;;;;;;13.88;2.92;;;;;;;;;;4941864;28;20556;-62
2023/06/25 11:49:18;;;;;;;8.65;2.90;;;;;;;;;;4933486;28;20276;-62
2023/06/25 11:51:52;;;;;;;7.50;3.28;;;;;;;;;;4939154;28;20550;-62
2023/06/25 11:54:18;;;;;;;7.27;3.00;;;;;;;;;;4934896;28;20540;-61
2023/06/25 11:56:44;;;;;;;7.50;2.90;;;;;;;;;;4927340;28;20831;-62
2023/06/25 11:59:11;;;;;;;8.50;3.50;;;;;;;;;;4936783;28;20034;-62
2023/06/25 12:01:37;;;;;;;6.90;3.20;;;;;;;;;;4931024;28;20202;-63
2023/06/25 12:04:03;;;;;;;6.95;2.95;;;;;;;;;;4921515;28;20035;-61
2023/06/25 12:06:29;;;;;;;8.23;3.42;;;;;;;;;;4917717;28;20066;-63
2023/06/25 12:08:55;;;;;;;7.72;3.15;;;;;;;;;;4939579;28;20058;-63
2023/06/25 12:11:21;;;;;;;8.77;3.00;;;;;;;;;;4918626;28;20105;-66
2023/06/25 12:13:47;;;;;;;8.30;3.28;;;;;;;;;;4938650;28;20061;-66
2023/06/25 12:16:14;;;;;;;8.55;3.17;;;;;;;;;;4941397;28;20050;-67
2023/06/25 12:18:40;;;;;;;7.20;3.20;;;;;;;;;;4935149;28;20330;-66
2023/06/25 12:21:06;;;;;;;7.03;3.17;;;;;;;;;;4939703;28;20042;-66
2023/06/25 12:23:32;;;;;;;8.85;3.00;;;;;;;;;;4936558;28;20089;-66
2023/06/25 12:25:58;;;;;;;7.20;2.75;;;;;;;;;;4940000;28;20038;-66
2023/06/25 12:28:24;;;;;;;8.15;3.08;;;;;;;;;;4935497;28;20129;-66
2023/06/25 12:30:51;;;;;;;8.90;3.58;;;;;;;;;;4940803;28;20023;-66
2023/06/25 12:33:17;;;;;;;7.07;2.97;;;;;;;;;;4935603;28;20034;-66
2023/06/25 12:35:43;;;;;;;7.80;3.00;;;;;;;;;;4920591;28;20803;-66
2023/06/25 12:38:09;;;;;;;7.43;2.85;;;;;;;;;;4937560;28;21131;-66
2023/06/25 12:40:35;;;;;;;7.32;3.10;;;;;;;;;;4911263;28;20786;-65
2023/06/25 12:43:02;;;;;;;8.00;3.42;;;;;;;;;;4914977;28;20826;-66
2023/06/25 12:45:28;;;;;;;7.55;3.10;;;;;;;;;;4933018;28;20160;-65
2023/06/25 12:47:54;;;;;;;8.25;3.45;;;;;;;;;;4936303;28;20035;-66
2023/06/25 12:50:20;;;;;;;8.95;3.38;;;;;;;;;;4927378;28;20031;-66
2023/06/25 12:52:47;;;;;;;7.40;3.15;;;;;;;;;;4938856;28;20054;-65
2023/06/25 12:55:13;;;;;;;6.82;3.03;;;;;;;;;;4921109;28;20493;-65
2023/06/25 12:57:39;;;;;;;10.88;3.47;;;;;;;;;;4927879;28;20151;-65
2023/06/25 13:00:05;;;;;;;6.68;3.13;;;;;;;;;;4922525;28;20296;-65
2023/06/25 13:02:32;;;;;;;6.80;2.72;;;;;;;;;;4928514;28;20038;-65
2023/06/25 13:04:59;;;;;;;6.68;2.88;;;;;;;;;;4915523;28;20031;-65
2023/06/25 13:07:26;;;;;;;7.10;2.92;;;;;;;;;;4937446;28;20031;-65
2023/06/25 13:09:52;;;;;;;6.68;2.88;;;;;;;;;;4939614;28;20096;-65
2023/06/25 13:12:18;;;;;;;6.55;2.97;;;;;;;;;;4935218;28;20369;-64
2023/06/25 13:14:44;;;;;;;7.10;3.10;;;;;;;;;;4936311;28;20288;-65
2023/06/25 13:17:11;;;;;;;7.95;2.88;;;;;;;;;;4937753;28;20340;-65
2023/06/25 13:19:41;;;;;;;6.20;2.80;;;;;;;;;;4929523;28;21149;-65
2023/06/25 13:22:07;;;;;;;5.88;2.72;;;;;;;;;;4936320;28;20788;-65
2023/06/25 13:24:35;;;;;;;9.98;2.90;;;;;;;;;;4930643;28;20041;-65
2023/06/25 13:27:01;;;;;;;6.95;3.13;;;;;;;;;;4938128;28;20027;-65
2023/06/25 13:29:31;;;;;;;6.95;2.92;;;;;;;;;;4932578;28;20023;-64
2023/06/25 13:31:57;;;;;;;6.10;2.67;;;;;;;;;;4937935;28;20046;-64
2023/06/25 13:34:23;;;;;;;6.18;2.90;;;;;;;;;;4930542;28;20485;-65
2023/06/25 13:36:50;;;;;;;7.05;2.97;;;;;;;;;;4922636;28;20027;-64
2023/06/25 13:39:16;;;;;;;8.55;2.70;;;;;;;;;;4920683;28;20556;-64
2023/06/25 13:41:42;;;;;;;5.78;2.65;;;;;;;;;;4938520;28;20070;-64
2023/06/25 13:44:09;;;;;;;6.63;2.85;;;;;;;;;;4921152;28;20027;-65
2023/06/25 13:46:35;;;;;;;6.18;2.50;;;;;;;;;;4934820;28;20026;-65
2023/06/25 13:49:16;;;;;;;7.07;3.10;;;;;;;;;;4920540;28;20496;-65
2023/06/25 13:51:43;;;;;;;6.30;2.58;;;;;;;;;;4940730;28;20073;-66
2023/06/25 13:54:16;;;;;;;7.38;2.90;;;;;;;;;;4943201;28;20089;-66
2023/06/25 13:56:52;;;;;;;9.05;2.70;;;;;;;;;;4940822;28;20061;-66
2023/06/25 13:59:23;;;;;;;6.43;2.60;;;;;;;;;;4940381;28;20034;-66
2023/06/25 14:01:53;;;;;;;7.63;2.90;;;;;;;;;;4938615;28;20061;-66
2023/06/25 14:04:19;;;;;;;7.10;2.80;;;;;;;;;;4935912;28;20019;-66
2023/06/25 14:06:50;;;;;;;6.35;2.63;;;;;;;;;;4920957;28;20372;-66
2023/06/25 14:09:19;;;;;;;9.35;2.63;;;;;;;;;;4927175;28;20124;-65
2023/06/25 14:11:45;;;;;;;7.60;2.78;;;;;;;;;;4930579;28;20038;-65
2023/06/25 14:16:47;;;;;;;6.90;2.80;;;;;;;;;;5940777;23;20104;-68
2023/06/25 14:19:13;;;;;;;7.97;2.97;;;;;;;;;;4976794;28;20037;-68
2023/06/25 14:21:40;;;;;;;6.82;2.97;;;;;;;;;;4957800;28;20045;-68
2023/06/25 14:24:06;;;;;;;6.03;2.65;;;;;;;;;;4983969;28;20025;-68
2023/06/25 14:26:32;;;;;;;6.38;2.78;;;;;;;;;;4964510;28;20054;-68
2023/06/25 14:29:01;;;;;;;7.43;3.13;;;;;;;;;;4978747;28;20037;-69
2023/06/25 14:31:27;;;;;;;7.07;3.00;;;;;;;;;;4984214;28;20516;-68
2023/06/25 14:33:53;;;;;;;6.93;2.60;;;;;;;;;;4976951;28;20380;-69
2023/06/25 14:36:19;;;;;;;5.85;2.53;;;;;;;;;;4981984;28;20566;-68
2023/06/25 14:38:46;;;;;;;7.40;2.83;;;;;;;;;;4963142;28;20562;-69
2023/06/25 14:41:13;;;;;;;6.28;2.70;;;;;;;;;;4983866;28;20045;-68
2023/06/25 14:43:39;;;;;;;6.13;2.70;;;;;;;;;;4981682;28;20301;-67